Time;durP1;ratioP1;P1;durP2;ratioP2;P2;SDS_P1;SDS_P2;PMS_P1;PMS_P2;Temp;Humidity;BMP_temperature;BMP_pressure;BME280_temperature;BME280_humidity;BME280_pressure;Samples;Min_cycle;Max_cycle;Signal;HPM_P1;HPM_P2
2021/06/05 00:00:12;;;;;;;83.30;42.40;;;18.40;99.90;;;;;;4991772;28;20054;-60
2021/06/05 00:02:37;;;;;;;89.32;44.05;;;18.30;99.90;;;;;;4980468;28;20034;-61
2021/06/05 00:05:05;;;;;;;98.50;46.22;;;18.20;99.90;;;;;;4983066;28;20038;-60
2021/06/05 00:07:31;;;;;;;97.55;47.40;;;18.10;99.90;;;;;;4987380;28;20022;-58
2021/06/05 00:09:57;;;;;;;95.95;47.05;;;18.10;99.90;;;;;;4982122;28;20049;-59
2021/06/05 00:12:26;;;;;;;94.50;47.30;;;18.10;99.90;;;;;;4983035;28;20057;-61
2021/06/05 00:14:52;;;;;;;96.65;46.90;;;18.10;99.90;;;;;;4986208;28;20495;-60
2021/06/05 00:17:18;;;;;;;106.18;46.85;;;18.10;99.90;;;;;;4981092;28;20031;-61
2021/06/05 00:19:44;;;;;;;99.95;47.42;;;18.00;99.90;;;;;;4982114;28;20486;-60
2021/06/05 00:22:09;;;;;;;112.63;48.03;;;18.10;99.90;;;;;;4984816;28;20761;-59
2021/06/05 00:24:35;;;;;;;110.55;48.70;;;18.00;99.90;;;;;;4981099;28;20034;-59
2021/06/05 00:27:01;;;;;;;101.70;46.42;;;18.00;99.90;;;;;;4981628;28;20030;-62
2021/06/05 00:29:26;;;;;;;100.78;48.28;;;18.00;99.90;;;;;;4983148;28;20033;-60
2021/06/05 00:31:52;;;;;;;93.20;44.72;;;18.00;99.90;;;;;;4985628;28;20034;-61
2021/06/05 00:34:18;;;;;;;88.47;45.03;;;18.00;99.90;;;;;;4985124;28;20022;-60
2021/06/05 00:36:43;;;;;;;86.55;44.60;;;18.10;99.90;;;;;;4980831;28;20034;-60
2021/06/05 00:39:10;;;;;;;89.85;43.85;;;18.00;99.90;;;;;;4981192;28;20403;-61
2021/06/05 00:41:36;;;;;;;98.05;47.92;;;17.90;99.90;;;;;;4979095;28;20102;-59
2021/06/05 00:44:06;;;;;;;82.97;43.08;;;17.90;99.90;;;;;;4978053;28;20030;-60
2021/06/05 00:46:32;;;;;;;105.10;47.55;;;17.90;99.90;;;;;;4977583;28;20031;-59
2021/06/05 00:48:59;;;;;;;88.50;45.55;;;17.90;99.90;;;;;;4979088;28;20039;-59
2021/06/05 00:51:36;;;;;;;82.88;41.90;;;17.90;99.90;;;;;;4977465;28;20045;-59
2021/06/05 00:54:03;;;;;;;86.78;43.85;;;17.90;99.90;;;;;;4980195;28;20035;-60
2021/06/05 00:56:29;;;;;;;87.93;44.20;;;17.90;99.90;;;;;;4978165;28;20030;-61
2021/06/05 00:58:54;;;;;;;88.75;43.90;;;17.70;99.90;;;;;;4979894;28;20022;-58
2021/06/05 01:01:23;;;;;;;88.30;45.17;;;17.70;99.90;;;;;;4979854;28;20023;-59
2021/06/05 01:03:51;;;;;;;95.13;45.13;;;17.60;99.90;;;;;;4978676;28;20038;-59
2021/06/05 01:06:19;;;;;;;96.30;45.45;;;17.50;99.90;;;;;;4977343;28;20030;-58
2021/06/05 01:08:57;;;;;;;102.03;44.88;;;17.50;99.90;;;;;;4980712;28;20026;-59
2021/06/05 01:11:41;;;;;;;93.43;46.53;;;17.50;99.90;;;;;;4981830;28;20111;-58
2021/06/05 01:14:19;;;;;;;96.00;44.70;;;17.50;99.90;;;;;;4980880;28;20145;-59
2021/06/05 01:16:48;;;;;;;91.00;43.90;;;17.40;99.90;;;;;;4977308;28;20647;-59
2021/06/05 01:19:28;;;;;;;85.03;42.17;;;17.40;99.90;;;;;;4979026;28;20064;-60
2021/06/05 01:22:39;;;;;;;96.70;45.05;;;17.40;99.90;;;;;;4979475;28;20038;-61
2021/06/05 01:25:12;;;;;;;82.78;42.05;;;17.30;99.90;;;;;;4957050;28;20415;-58
2021/06/05 01:27:43;;;;;;;92.03;43.97;;;17.30;99.90;;;;;;4982175;28;20023;-60
2021/06/05 01:30:14;;;;;;;89.18;43.45;;;17.20;99.90;;;;;;4982544;28;20109;-59
2021/06/05 01:32:40;;;;;;;102.72;44.70;;;17.20;99.90;;;;;;4984501;28;20019;-60
2021/06/05 01:35:07;;;;;;;101.95;45.45;;;17.10;99.90;;;;;;4980890;28;20045;-59
2021/06/05 01:37:37;;;;;;;95.50;44.08;;;17.10;99.90;;;;;;4984382;28;20455;-59
2021/06/05 01:40:04;;;;;;;103.18;46.67;;;17.10;99.90;;;;;;4980113;28;20777;-59
2021/06/05 01:42:33;;;;;;;104.20;46.20;;;17.10;99.90;;;;;;4985771;28;20029;-59
2021/06/05 01:45:00;;;;;;;96.80;45.05;;;17.00;99.90;;;;;;4983501;28;20926;-59
2021/06/05 01:47:26;;;;;;;95.47;43.10;;;17.00;99.90;;;;;;4982427;28;20042;-59
2021/06/05 01:49:52;;;;;;;89.80;43.33;;;16.90;99.90;;;;;;4980735;28;20037;-61
2021/06/05 01:52:25;;;;;;;90.80;42.38;;;16.90;99.90;;;;;;4983650;28;20022;-61
2021/06/05 01:54:58;;;;;;;84.35;41.40;;;16.90;99.90;;;;;;4983439;28;20425;-58
2021/06/05 01:57:28;;;;;;;81.30;39.85;;;16.90;99.90;;;;;;4982672;28;20110;-59
2021/06/05 01:59:54;;;;;;;85.68;40.50;;;16.90;99.90;;;;;;4981310;28;20453;-58
2021/06/05 02:02:21;;;;;;;92.60;43.08;;;16.90;99.90;;;;;;4982778;28;20034;-59
2021/06/05 02:04:47;;;;;;;87.55;41.58;;;17.00;99.90;;;;;;4981769;28;20091;-62
2021/06/05 02:07:14;;;;;;;91.45;41.97;;;17.00;99.90;;;;;;4985270;28;20491;-59
2021/06/05 02:09:39;;;;;;;93.45;42.40;;;17.00;99.90;;;;;;4985641;28;20058;-60
2021/06/05 02:12:15;;;;;;;96.13;43.55;;;16.90;99.90;;;;;;4984046;28;20084;-61
2021/06/05 02:14:50;;;;;;;76.40;41.75;;;16.90;99.90;;;;;;4980812;28;20033;-62
2021/06/05 02:17:17;;;;;;;95.97;43.47;;;17.00;99.90;;;;;;4979730;28;20029;-60
2021/06/05 02:19:46;;;;;;;93.25;42.03;;;17.00;99.90;;;;;;4981170;28;20053;-60
2021/06/05 02:22:20;;;;;;;97.30;45.58;;;17.00;99.90;;;;;;4986000;28;20054;-60
2021/06/05 02:24:48;;;;;;;103.78;44.67;;;17.00;99.90;;;;;;4983406;28;20419;-60
2021/06/05 02:27:18;;;;;;;96.35;45.78;;;16.90;99.90;;;;;;4981963;28;20019;-60
2021/06/05 02:29:45;;;;;;;114.25;47.70;;;16.80;99.90;;;;;;4980630;28;20034;-61
2021/06/05 02:32:13;;;;;;;106.45;48.45;;;16.80;99.90;;;;;;4982152;28;20030;-60
2021/06/05 02:34:39;;;;;;;87.07;43.00;;;16.80;99.90;;;;;;4988271;28;20034;-60
2021/06/05 02:37:07;;;;;;;108.82;47.08;;;16.80;99.90;;;;;;4985358;28;20022;-60
2021/06/05 02:39:33;;;;;;;97.43;44.05;;;16.70;99.90;;;;;;4981909;28;20056;-61
2021/06/05 02:42:00;;;;;;;105.55;46.28;;;16.70;99.90;;;;;;4981885;28;21524;-59
2021/06/05 02:44:30;;;;;;;100.05;46.67;;;16.70;99.90;;;;;;4981638;28;20030;-59
2021/06/05 02:47:05;;;;;;;102.97;46.97;;;16.80;99.90;;;;;;4982361;28;20113;-59
2021/06/05 02:49:35;;;;;;;102.00;46.78;;;16.80;99.90;;;;;;4981354;28;20030;-60
2021/06/05 02:52:06;;;;;;;98.70;46.20;;;16.80;99.90;;;;;;4981827;28;20030;-61
2021/06/05 02:54:32;;;;;;;102.47;47.15;;;16.80;99.90;;;;;;4982688;28;20495;-59
2021/06/05 02:56:58;;;;;;;102.80;46.92;;;16.80;99.90;;;;;;4982853;28;20030;-59
2021/06/05 02:59:25;;;;;;;97.60;43.90;;;16.80;99.90;;;;;;4981835;28;20046;-61
2021/06/05 03:01:51;;;;;;;98.80;45.85;;;16.80;99.90;;;;;;4980843;28;20022;-60
2021/06/05 03:04:17;;;;;;;101.03;45.53;;;16.70;99.90;;;;;;4982330;28;20038;-60
2021/06/05 03:06:44;;;;;;;93.22;43.92;;;16.70;99.90;;;;;;4980460;28;20050;-59
2021/06/05 03:09:15;;;;;;;99.75;43.53;;;16.70;99.90;;;;;;4980052;28;20042;-60
2021/06/05 03:11:41;;;;;;;99.10;44.97;;;16.70;99.90;;;;;;4980598;28;20484;-60
2021/06/05 03:14:06;;;;;;;99.03;41.97;;;16.70;99.90;;;;;;4981021;28;20042;-61
2021/06/05 03:16:32;;;;;;;88.88;42.08;;;16.70;99.90;;;;;;4978746;28;20106;-59
2021/06/05 03:18:58;;;;;;;95.22;41.50;;;16.70;99.90;;;;;;4983001;28;20026;-60
2021/06/05 03:21:24;;;;;;;108.82;45.47;;;16.70;99.90;;;;;;4978858;28;20109;-60
2021/06/05 03:23:50;;;;;;;97.18;45.25;;;16.80;99.90;;;;;;4981339;28;20090;-60
2021/06/05 03:26:18;;;;;;;84.82;42.90;;;16.80;99.90;;;;;;4981027;28;20031;-59
2021/06/05 03:28:43;;;;;;;91.82;44.63;;;16.80;99.90;;;;;;4981050;28;20459;-64
2021/06/05 03:31:11;;;;;;;85.75;43.58;;;16.90;99.90;;;;;;4979351;28;20064;-61
2021/06/05 03:33:37;;;;;;;96.25;45.08;;;16.90;99.90;;;;;;4985995;28;20495;-59
2021/06/05 03:36:04;;;;;;;84.43;43.03;;;16.90;99.90;;;;;;4986366;28;20060;-60
2021/06/05 03:38:30;;;;;;;90.25;42.78;;;16.90;99.90;;;;;;4984913;28;20018;-59
2021/06/05 03:40:56;;;;;;;102.03;45.25;;;16.90;99.90;;;;;;4978459;28;20489;-61
2021/06/05 03:43:23;;;;;;;84.22;41.85;;;17.00;99.90;;;;;;4981758;28;20038;-60
2021/06/05 03:45:49;;;;;;;85.93;43.58;;;17.00;99.90;;;;;;4982805;28;20420;-60
2021/06/05 03:48:15;;;;;;;91.90;43.53;;;17.00;99.90;;;;;;4982994;28;20115;-60
2021/06/05 03:50:44;;;;;;;89.65;44.80;;;17.10;99.90;;;;;;4984654;28;20502;-59
2021/06/05 03:53:11;;;;;;;95.03;45.72;;;17.10;99.90;;;;;;4985285;28;20029;-60
2021/06/05 03:55:37;;;;;;;88.63;41.50;;;17.10;99.90;;;;;;4982956;28;20032;-59
2021/06/05 03:58:03;;;;;;;94.50;44.40;;;17.10;99.90;;;;;;4982189;28;20097;-59
2021/06/05 04:00:33;;;;;;;95.82;44.65;;;17.10;99.90;;;;;;4987366;28;20073;-60
2021/06/05 04:02:59;;;;;;;97.93;46.80;;;17.10;99.90;;;;;;4985482;28;20022;-59
2021/06/05 04:05:25;;;;;;;86.82;42.05;;;17.20;99.90;;;;;;4985538;28;20034;-60
2021/06/05 04:07:51;;;;;;;96.03;44.22;;;17.20;99.90;;;;;;4985252;28;20050;-61
2021/06/05 04:10:18;;;;;;;85.35;42.85;;;17.20;99.90;;;;;;4982608;28;20034;-60
2021/06/05 04:12:44;;;;;;;85.82;41.47;;;17.30;99.90;;;;;;5077994;22;20062;-59
2021/06/05 04:15:12;;;;;;;79.57;38.80;;;17.30;99.90;;;;;;5081174;28;20032;-60
2021/06/05 04:17:38;;;;;;;80.32;39.38;;;17.30;99.90;;;;;;5078842;28;20028;-60
2021/06/05 04:20:06;;;;;;;70.70;35.28;;;17.30;99.90;;;;;;5082813;28;20028;-59
2021/06/05 04:22:31;;;;;;;68.90;36.78;;;17.40;99.90;;;;;;5083693;28;20490;-58
2021/06/05 04:24:58;;;;;;;64.97;34.72;;;17.40;99.90;;;;;;5089307;28;20052;-60
2021/06/05 04:27:24;;;;;;;73.97;36.75;;;17.40;99.90;;;;;;5085825;28;20085;-58
2021/06/05 04:29:49;;;;;;;75.15;36.90;;;17.40;99.90;;;;;;5086945;28;20036;-59
2021/06/05 04:32:15;;;;;;;78.75;37.40;;;17.30;99.90;;;;;;5082318;28;20112;-60
2021/06/05 04:34:40;;;;;;;72.32;34.83;;;17.30;99.90;;;;;;5080416;28;20132;-60
2021/06/05 04:37:06;;;;;;;78.25;37.60;;;17.30;99.90;;;;;;5085527;28;20024;-60
2021/06/05 04:39:32;;;;;;;72.50;35.67;;;17.30;99.90;;;;;;5085571;28;20531;-60
2021/06/05 04:41:58;;;;;;;81.45;38.35;;;17.30;99.90;;;;;;5087613;28;20039;-58
2021/06/05 04:44:24;;;;;;;85.35;39.15;;;17.30;99.90;;;;;;5085830;28;20089;-60
2021/06/05 04:46:49;;;;;;;78.55;38.15;;;17.30;99.90;;;;;;5083464;28;20025;-58
2021/06/05 04:49:15;;;;;;;82.78;38.35;;;17.30;99.90;;;;;;5084273;28;20062;-60
2021/06/05 04:51:41;;;;;;;79.18;38.17;;;17.30;99.90;;;;;;5078534;28;20466;-58
2021/06/05 04:54:07;;;;;;;84.43;38.25;;;17.30;99.90;;;;;;5083423;28;20100;-60
2021/06/05 04:56:47;;;;;;;78.30;38.20;;;17.30;99.90;;;;;;5087338;28;20043;-60
2021/06/05 04:59:14;;;;;;;79.30;38.42;;;17.30;99.90;;;;;;5087553;28;20048;-59
2021/06/05 05:01:40;;;;;;;68.95;35.30;;;17.30;99.90;;;;;;5086979;28;20028;-59
2021/06/05 05:04:06;;;;;;;69.25;34.33;;;17.30;99.90;;;;;;5081730;28;20501;-56
2021/06/05 05:06:32;;;;;;;63.10;33.85;;;17.40;99.90;;;;;;5086000;28;20028;-60
2021/06/05 05:08:58;;;;;;;66.50;32.35;;;17.40;99.90;;;;;;5084215;28;20023;-60
2021/06/05 05:11:24;;;;;;;61.53;31.17;;;17.40;99.90;;;;;;5083310;28;20024;-59
2021/06/05 05:13:50;;;;;;;67.05;35.25;;;17.50;99.90;;;;;;5087356;28;20105;-60
2021/06/05 05:16:16;;;;;;;54.67;30.77;;;17.40;99.90;;;;;;5085571;28;20028;-60
2021/06/05 05:18:46;;;;;;;64.32;33.22;;;17.50;99.90;;;;;;5081779;28;20032;-60
2021/06/05 05:21:14;;;;;;;67.72;34.45;;;17.50;99.90;;;;;;5080839;28;20024;-60
2021/06/05 05:23:40;;;;;;;68.25;34.65;;;17.50;99.90;;;;;;5088547;28;20028;-60
2021/06/05 05:26:07;;;;;;;66.55;33.75;;;17.50;99.90;;;;;;5088970;28;20675;-60
2021/06/05 05:28:33;;;;;;;61.92;32.25;;;17.50;99.90;;;;;;5086456;28;20036;-60
2021/06/05 05:31:01;;;;;;;60.13;31.10;;;17.60;99.90;;;;;;5083667;28;20035;-60
2021/06/05 05:33:27;;;;;;;64.35;31.83;;;17.60;99.90;;;;;;5084699;28;20074;-59
2021/06/05 05:35:56;;;;;;;71.40;33.47;;;17.60;99.90;;;;;;5089254;28;20481;-60
2021/06/05 05:38:22;;;;;;;73.15;35.05;;;17.60;99.90;;;;;;5081130;28;20508;-60
2021/06/05 05:40:48;;;;;;;69.72;32.25;;;17.60;99.90;;;;;;5087696;28;20024;-59
2021/06/05 05:43:14;;;;;;;71.40;31.95;;;17.70;99.90;;;;;;5085463;28;20027;-60
2021/06/05 05:45:40;;;;;;;73.68;35.63;;;17.70;99.90;;;;;;5081686;28;20024;-59
2021/06/05 05:48:08;;;;;;;76.03;33.55;;;17.70;99.90;;;;;;5087525;28;20400;-60
2021/06/05 05:50:36;;;;;;;76.55;35.15;;;17.70;99.90;;;;;;5083924;28;20494;-60
2021/06/05 05:53:02;;;;;;;83.40;36.90;;;17.80;99.90;;;;;;5081969;28;20029;-60
2021/06/05 05:55:28;;;;;;;85.70;36.35;;;17.80;99.90;;;;;;5086547;28;20119;-60
2021/06/05 05:57:54;;;;;;;89.30;38.63;;;17.80;99.90;;;;;;5084228;28;20107;-60
2021/06/05 06:00:26;;;;;;;83.32;34.65;;;17.80;99.90;;;;;;5089959;28;20428;-60
2021/06/05 06:02:51;;;;;;;73.10;34.10;;;17.80;99.90;;;;;;5085586;28;20024;-60
2021/06/05 06:05:18;;;;;;;89.03;36.35;;;17.90;99.90;;;;;;5083736;28;20032;-61
2021/06/05 06:07:44;;;;;;;78.15;35.95;;;17.90;99.90;;;;;;5081115;28;20040;-60
2021/06/05 06:10:21;;;;;;;82.13;36.70;;;17.90;99.90;;;;;;5069287;28;20035;-60
2021/06/05 06:12:47;;;;;;;85.47;38.30;;;17.90;99.90;;;;;;5083460;28;20517;-60
2021/06/05 06:15:18;;;;;;;83.40;35.90;;;17.80;99.90;;;;;;5081854;28;20032;-60
2021/06/05 06:17:44;;;;;;;88.53;37.28;;;17.80;99.90;;;;;;5081593;28;20020;-62
2021/06/05 06:20:33;;;;;;;85.50;39.80;;;17.80;99.90;;;;;;5084253;28;20024;-60
2021/06/05 06:22:59;;;;;;;78.47;35.58;;;17.80;99.90;;;;;;5075418;28;20513;-60
2021/06/05 06:25:29;;;;;;;84.35;38.83;;;17.80;99.90;;;;;;5086070;28;20063;-60
2021/06/05 06:27:54;;;;;;;66.18;33.80;;;17.90;99.90;;;;;;5082939;28;20064;-59
2021/06/05 06:30:34;;;;;;;78.00;35.15;;;17.90;99.90;;;;;;5078900;28;20075;-60
2021/06/05 06:33:00;;;;;;;73.22;32.38;;;17.90;99.90;;;;;;5081714;28;20515;-60
2021/06/05 06:35:28;;;;;;;60.15;30.85;;;18.00;99.90;;;;;;5085515;28;20050;-60
2021/06/05 06:37:55;;;;;;;58.92;31.02;;;18.00;99.90;;;;;;5080612;28;20025;-58
2021/06/05 06:40:27;;;;;;;49.47;27.90;;;18.00;99.90;;;;;;5082653;28;20011;-60
2021/06/05 06:42:54;;;;;;;54.33;29.20;;;18.00;99.90;;;;;;5082254;28;20032;-56
2021/06/05 06:45:20;;;;;;;52.22;27.27;;;18.00;99.90;;;;;;5082579;28;20043;-60
2021/06/05 06:47:46;;;;;;;45.45;25.85;;;18.10;99.90;;;;;;5084780;28;20070;-60
2021/06/05 06:50:15;;;;;;;47.80;28.27;;;18.10;99.90;;;;;;5081712;28;20024;-59
2021/06/05 06:52:41;;;;;;;58.17;29.70;;;18.20;99.90;;;;;;5082564;28;20039;-59
2021/06/05 06:55:07;;;;;;;55.30;27.73;;;18.20;99.90;;;;;;5079635;28;20040;-60
2021/06/05 06:57:33;;;;;;;48.03;24.73;;;18.20;99.90;;;;;;5088574;28;20490;-60
2021/06/05 06:59:59;;;;;;;45.97;27.05;;;18.20;99.90;;;;;;5084175;28;20063;-60
2021/06/05 07:02:24;;;;;;;44.78;24.48;;;18.30;99.90;;;;;;5090502;28;20095;-60
2021/06/05 07:04:51;;;;;;;38.47;21.17;;;18.40;99.90;;;;;;5076884;28;20078;-58
2021/06/05 07:07:17;;;;;;;37.55;20.17;;;18.60;99.90;;;;;;5087322;28;20516;-58
2021/06/05 07:09:43;;;;;;;36.33;21.80;;;18.70;99.90;;;;;;5080481;28;20036;-60
2021/06/05 07:12:09;;;;;;;38.30;21.55;;;18.90;99.90;;;;;;5079030;28;20028;-59
2021/06/05 07:14:35;;;;;;;41.53;22.27;;;18.90;99.90;;;;;;5077567;28;20039;-55
2021/06/05 07:17:02;;;;;;;45.20;24.90;;;18.90;99.90;;;;;;5081733;28;20096;-58
2021/06/05 07:19:27;;;;;;;42.35;23.30;;;19.10;99.90;;;;;;5056935;28;20040;-59
2021/06/05 07:21:53;;;;;;;43.22;23.23;;;19.10;99.90;;;;;;5084923;28;20032;-59
2021/06/05 07:24:19;;;;;;;44.28;24.50;;;19.30;99.90;;;;;;5077071;28;20032;-58
2021/06/05 07:26:46;;;;;;;48.05;25.40;;;19.30;99.90;;;;;;5079183;28;20035;-60
2021/06/05 07:29:12;;;;;;;47.38;24.35;;;19.30;99.90;;;;;;5090104;28;20024;-58
2021/06/05 07:31:46;;;;;;;45.35;23.45;;;19.30;99.90;;;;;;5083815;28;20145;-59
2021/06/05 07:34:12;;;;;;;45.85;24.15;;;19.40;99.90;;;;;;5078172;28;20031;-59
2021/06/05 07:36:44;;;;;;;65.68;32.13;;;19.50;99.90;;;;;;5087052;28;20030;-60
2021/06/05 07:39:13;;;;;;;75.47;35.13;;;19.50;99.90;;;;;;5085082;28;20032;-56
2021/06/05 07:41:39;;;;;;;66.68;30.77;;;19.60;99.90;;;;;;5083649;28;20123;-60
2021/06/05 07:44:04;;;;;;;65.88;31.23;;;19.60;99.90;;;;;;5081106;28;20062;-59
2021/06/05 07:46:31;;;;;;;59.65;28.52;;;19.70;99.90;;;;;;5081687;28;20040;-60
2021/06/05 07:48:56;;;;;;;59.28;27.90;;;19.70;99.90;;;;;;5080321;28;20043;-58
2021/06/05 07:51:22;;;;;;;52.80;27.38;;;19.80;99.90;;;;;;5083941;28;20029;-60
2021/06/05 07:53:48;;;;;;;58.15;27.33;;;19.80;99.90;;;;;;5073378;28;20032;-58
2021/06/05 07:56:18;;;;;;;57.35;29.52;;;19.60;99.90;;;;;;5084051;28;20042;-60
2021/06/05 07:58:44;;;;;;;60.38;30.40;;;19.60;99.90;;;;;;5090130;28;20028;-59
2021/06/05 08:01:09;;;;;;;58.67;30.05;;;19.70;99.90;;;;;;5078564;28;20092;-57
2021/06/05 08:03:35;;;;;;;63.80;31.33;;;19.80;99.90;;;;;;5083598;28;20031;-60
2021/06/05 08:06:00;;;;;;;57.05;30.40;;;19.60;99.90;;;;;;5084349;28;20024;-59
2021/06/05 08:08:26;;;;;;;63.75;31.58;;;19.60;99.90;;;;;;5084911;28;20040;-59
2021/06/05 08:10:52;;;;;;;58.80;29.90;;;19.60;99.90;;;;;;5081494;28;20099;-57
2021/06/05 08:13:17;;;;;;;57.13;29.52;;;19.70;99.90;;;;;;5078975;28;20024;-54
2021/06/05 08:15:46;;;;;;;55.97;30.27;;;19.70;99.90;;;;;;5082592;28;20083;-59
2021/06/05 08:18:13;;;;;;;60.83;30.55;;;19.60;99.90;;;;;;5083585;28;20022;-57
2021/06/05 08:20:46;;;;;;;60.40;32.88;;;19.50;99.90;;;;;;5082792;28;20028;-56
2021/06/05 08:23:13;;;;;;;58.92;29.45;;;19.40;99.90;;;;;;5077939;28;20435;-58
2021/06/05 08:25:39;;;;;;;53.42;27.80;;;19.30;99.90;;;;;;5076900;28;20028;-52
2021/06/05 08:28:07;;;;;;;54.97;28.75;;;19.50;99.90;;;;;;5077221;28;20112;-56
2021/06/05 08:30:39;;;;;;;56.97;29.75;;;19.50;99.90;;;;;;5080069;28;20367;-56
2021/06/05 08:33:06;;;;;;;68.82;32.08;;;19.50;99.90;;;;;;5084883;28;20670;-59
2021/06/05 08:35:32;;;;;;;61.78;31.40;;;19.50;99.90;;;;;;5081236;28;20094;-59
2021/06/05 08:37:57;;;;;;;49.65;28.58;;;19.60;99.90;;;;;;5087707;28;20033;-59
2021/06/05 08:40:46;;;;;;;51.22;27.77;;;19.70;99.90;;;;;;5087509;28;20402;-57
2021/06/05 08:43:18;;;;;;;51.38;27.88;;;19.90;99.90;;;;;;5082456;28;20065;-55
2021/06/05 08:45:43;;;;;;;49.33;26.10;;;20.10;99.90;;;;;;5083590;28;20505;-57
2021/06/05 08:48:15;;;;;;;48.33;26.95;;;20.20;99.90;;;;;;5084723;28;20036;-61
2021/06/05 08:50:41;;;;;;;50.03;27.65;;;20.20;99.90;;;;;;5085834;28;20024;-51
2021/06/05 08:53:15;;;;;;;48.15;28.40;;;20.30;99.90;;;;;;5080436;28;20028;-59
2021/06/05 08:55:56;;;;;;;50.67;28.33;;;20.30;99.90;;;;;;5077264;28;20044;-61
2021/06/05 08:58:38;;;;;;;53.35;28.63;;;20.30;99.90;;;;;;5088807;28;20028;-60
2021/06/05 09:01:09;;;;;;;50.63;28.48;;;20.30;99.90;;;;;;5078175;28;20020;-57
2021/06/05 09:03:37;;;;;;;52.55;27.15;;;20.40;99.90;;;;;;5072782;28;20029;-59
2021/06/05 09:06:37;;;;;;;53.85;28.73;;;20.30;99.90;;;;;;5077726;28;20558;-61
2021/06/05 09:09:09;;;;;;;63.35;30.98;;;20.20;99.90;;;;;;5076052;28;20033;-57
2021/06/05 09:11:36;;;;;;;54.17;29.10;;;20.10;99.90;;;;;;5084127;28;20489;-57
2021/06/05 09:14:02;;;;;;;52.00;29.50;;;19.90;99.90;;;;;;5084878;28;20027;-57
2021/06/05 09:16:34;;;;;;;51.70;29.90;;;19.90;99.90;;;;;;5075909;28;20025;-55
2021/06/05 09:19:07;;;;;;;50.17;30.50;;;20.00;99.90;;;;;;5081456;28;20444;-57
2021/06/05 09:21:37;;;;;;;52.00;27.88;;;20.10;99.90;;;;;;5072369;28;20025;-53
2021/06/05 09:24:17;;;;;;;51.55;28.30;;;20.20;99.90;;;;;;5069157;28;20456;-58
2021/06/05 09:27:00;;;;;;;54.22;30.42;;;20.20;99.90;;;;;;5072836;28;20097;-58
2021/06/05 09:29:26;;;;;;;51.03;27.95;;;20.30;99.90;;;;;;5082267;28;20387;-58
2021/06/05 09:32:10;;;;;;;52.38;28.13;;;20.40;99.90;;;;;;5075162;28;20048;-61
2021/06/05 09:34:39;;;;;;;;;;;20.40;99.90;;;;;;5080532;28;20098;-59
2021/06/05 09:37:06;;;;;;;55.53;30.02;;;20.40;99.90;;;;;;5078395;28;19944;-58
2021/06/05 09:39:40;;;;;;;58.95;30.95;;;20.40;99.90;;;;;;5072832;28;20436;-53
2021/06/05 09:42:07;;;;;;;57.33;30.77;;;20.30;99.90;;;;;;5071972;28;20032;-57
2021/06/05 09:44:48;;;;;;;56.50;31.75;;;20.30;99.90;;;;;;5067783;28;20389;-56
2021/06/05 09:47:28;;;;;;;65.55;32.97;;;20.30;99.90;;;;;;5066630;28;20027;-55
2021/06/05 09:49:59;;;;;;;61.90;31.70;;;20.30;99.90;;;;;;5080507;28;20036;-55
2021/06/05 09:52:24;;;;;;;58.35;32.22;;;20.20;99.90;;;;;;5082887;28;20111;-52
2021/06/05 09:54:53;;;;;;;57.53;30.63;;;20.30;99.90;;;;;;5088157;28;20325;-60
2021/06/05 09:57:24;;;;;;;55.65;32.85;;;20.30;99.90;;;;;;5082900;28;20498;-58
2021/06/05 10:00:17;;;;;;;57.38;31.35;;;20.30;99.90;;;;;;5078885;28;20036;-57
2021/06/05 10:02:48;;;;;;;59.67;31.80;;;20.30;99.90;;;;;;5085953;28;20402;-59
2021/06/05 10:05:42;;;;;;;56.88;31.90;;;20.30;99.90;;;;;;5087346;28;20024;-60
2021/06/05 10:08:33;;;;;;;66.70;34.35;;;20.30;99.90;;;;;;5083340;28;20047;-57
2021/06/05 10:11:06;;;;;;;66.43;33.47;;;20.20;99.90;;;;;;5086083;28;20096;-56
2021/06/05 10:13:36;;;;;;;69.65;35.08;;;20.10;99.90;;;;;;5020827;22;20055;-61
2021/06/05 10:16:08;;;;;;;72.15;36.53;;;20.00;99.90;;;;;;4980869;28;20508;-62
2021/06/05 10:18:40;;;;;;;71.97;35.33;;;19.90;99.90;;;;;;4983158;28;20034;-61
2021/06/05 10:21:11;;;;;;;59.45;33.13;;;19.80;99.90;;;;;;4982613;28;20019;-64
2021/06/05 10:23:42;;;;;;;67.75;34.38;;;19.80;99.90;;;;;;4968572;28;20027;-61
2021/06/05 10:26:36;;;;;;;72.07;37.40;;;19.80;99.90;;;;;;4960102;28;20505;-60
2021/06/05 10:29:26;;;;;;;67.65;36.00;;;19.80;99.90;;;;;;4967910;28;20428;-62
2021/06/05 10:31:54;;;;;;;70.97;34.88;;;19.70;99.90;;;;;;4968463;28;20046;-62
2021/06/05 10:34:31;;;;;;;67.80;36.15;;;19.70;99.90;;;;;;4977353;28;20043;-61
2021/06/05 10:36:57;;;;;;;64.40;35.22;;;19.60;99.90;;;;;;4961873;28;20028;-60
2021/06/05 10:39:32;;;;;;;74.18;36.88;;;19.50;99.90;;;;;;4963000;28;20093;-61
2021/06/05 10:42:07;;;;;;;74.00;36.53;;;19.50;99.90;;;;;;4961920;28;20043;-62
2021/06/05 10:44:33;;;;;;;77.93;37.55;;;19.50;99.90;;;;;;4961371;28;20031;-60
2021/06/05 10:47:36;;;;;;;78.40;36.90;;;19.60;99.90;;;;;;4986047;28;20085;-60
2021/06/05 10:50:11;;;;;;;74.45;34.75;;;19.60;99.90;;;;;;5000215;28;20062;-60
2021/06/05 10:52:49;;;;;;;85.65;38.75;;;19.70;99.90;;;;;;4961233;28;20068;-60
2021/06/05 10:55:30;;;;;;;80.70;36.28;;;19.80;99.90;;;;;;4961380;28;20033;-60
2021/06/05 10:58:08;;;;;;;75.60;36.83;;;19.90;99.90;;;;;;4961607;28;20030;-61
2021/06/05 11:00:48;;;;;;;79.70;36.00;;;19.90;99.90;;;;;;4960523;28;20141;-59
2021/06/05 11:03:23;;;;;;;81.63;39.28;;;20.10;99.90;;;;;;4962108;28;20106;-59
2021/06/05 11:06:10;;;;;;;78.75;38.53;;;20.40;99.90;;;;;;4960139;28;20027;-58
2021/06/05 11:08:43;;;;;;;79.47;38.63;;;20.40;99.90;;;;;;4963929;28;20034;-59
2021/06/05 11:11:08;;;;;;;76.07;37.40;;;20.50;99.90;;;;;;4958579;28;20046;-57
2021/06/05 11:16:02;;;;;;;74.43;35.72;;;20.50;99.90;;;;;;4964967;28;20388;-59
2021/06/05 11:18:35;;;;;;;74.75;36.70;;;20.70;99.90;;;;;;4962718;28;20110;-60
2021/06/05 11:21:25;;;;;;;71.47;34.97;;;20.80;99.90;;;;;;4959394;28;20031;-61
2021/06/05 11:23:57;;;;;;;66.55;34.47;;;21.00;99.90;;;;;;4968416;28;20286;-60
2021/06/05 11:26:38;;;;;;;64.07;33.33;;;21.20;99.90;;;;;;4961278;28;20022;-62
2021/06/05 11:29:06;;;;;;;57.63;32.70;;;21.20;99.90;;;;;;4956358;28;20110;-61
2021/06/05 11:31:40;;;;;;;54.67;29.98;;;21.20;99.90;;;;;;4959781;28;20031;-61
2021/06/05 11:34:08;;;;;;;58.15;31.10;;;21.30;99.90;;;;;;4956444;28;20034;-62
2021/06/05 11:36:36;;;;;;;56.35;31.30;;;21.30;99.90;;;;;;4959529;28;20118;-57
2021/06/05 11:39:08;;;;;;;62.55;33.90;;;21.30;99.90;;;;;;4961132;28;20498;-61
2021/06/05 11:41:55;;;;;;;60.67;32.28;;;21.40;99.90;;;;;;4957271;28;20031;-61
2021/06/05 11:44:33;;;;;;;60.90;33.22;;;21.40;99.90;;;;;;4958297;28;20061;-62
2021/06/05 11:47:18;;;;;;;59.97;32.78;;;21.40;99.90;;;;;;4938823;28;20027;-61
2021/06/05 11:49:47;;;;;;;71.93;37.85;;;21.40;99.90;;;;;;4957976;28;20419;-60
2021/06/05 11:52:35;;;;;;;70.05;37.05;;;21.20;99.90;;;;;;4957646;28;20133;-61
2021/06/05 11:55:31;;;;;;;71.72;38.17;;;21.30;99.90;;;;;;4957173;28;20027;-58
2021/06/05 11:58:04;;;;;;;71.90;37.22;;;21.30;99.90;;;;;;4954498;28;20122;-61
2021/06/05 12:00:32;;;;;;;65.60;37.30;;;21.40;99.90;;;;;;4959690;28;20355;-60
2021/06/05 12:03:03;;;;;;;64.18;35.80;;;21.50;99.90;;;;;;4960070;28;20306;-59
2021/06/05 12:05:36;;;;;;;69.68;37.50;;;21.60;99.90;;;;;;4962432;28;20035;-61
2021/06/05 12:08:26;;;;;;;77.40;38.45;;;21.60;99.90;;;;;;4960143;28;20037;-61
2021/06/05 12:10:53;;;;;;;70.13;38.00;;;21.40;99.90;;;;;;4955761;28;20078;-62
2021/06/05 12:13:33;;;;;;;81.57;43.30;;;21.30;99.90;;;;;;4959850;28;20049;-59
2021/06/05 12:16:19;;;;;;;78.18;41.55;;;21.30;99.90;;;;;;4959283;28;20070;-64
2021/06/05 12:18:47;;;;;;;74.85;40.28;;;21.30;99.90;;;;;;4957054;28;20022;-62
2021/06/05 12:21:33;;;;;;;78.57;41.63;;;21.40;99.90;;;;;;4961276;28;20023;-61
2021/06/05 12:24:15;;;;;;;82.68;42.92;;;21.30;99.90;;;;;;4958051;28;20031;-61
2021/06/05 12:27:01;;;;;;;81.70;42.47;;;21.20;99.90;;;;;;4957165;28;20043;-59
2021/06/05 12:29:33;;;;;;;83.43;43.05;;;21.20;99.90;;;;;;4957131;28;20054;-60
2021/06/05 12:32:26;;;;;;;90.20;45.95;;;21.20;99.90;;;;;;4956407;28;20377;-63
2021/06/05 12:34:52;;;;;;;96.75;47.30;;;21.10;99.90;;;;;;4959171;28;20029;-59
2021/06/05 12:37:21;;;;;;;90.22;45.92;;;21.10;99.90;;;;;;4961486;28;20443;-58
2021/06/05 12:39:57;;;;;;;83.47;44.47;;;21.30;99.90;;;;;;4958881;28;20384;-61
2021/06/05 12:42:36;;;;;;;94.68;46.50;;;21.30;99.90;;;;;;4957134;28;20405;-62